createdAt,value
2022-09-27T00:02:04.191Z,0.80
2022-09-27T00:04:48.995Z,1.10
2022-09-27T00:07:31.911Z,0.93
2022-09-27T00:10:14.951Z,0.80
2022-09-27T00:12:57.900Z,0.90
2022-09-27T00:15:40.821Z,0.80
2022-09-27T00:18:23.700Z,0.90
2022-09-27T00:21:12.565Z,0.95
2022-09-27T00:23:55.489Z,1.20
2022-09-27T00:26:38.489Z,0.90
2022-09-27T00:29:21.310Z,1.00
2022-09-27T00:32:04.439Z,0.80
2022-09-27T00:34:47.368Z,0.90
2022-09-27T00:37:31.610Z,0.75
2022-09-27T00:40:19.483Z,0.80
2022-09-27T00:43:02.691Z,0.80
2022-09-27T00:45:48.066Z,0.95
2022-09-27T00:48:32.820Z,0.80
2022-09-27T00:51:16.860Z,0.90
2022-09-27T00:54:01.844Z,1.00
2022-09-27T00:56:45.062Z,0.93
2022-09-27T00:59:30.216Z,0.90
2022-09-27T01:02:14.040Z,0.90
2022-09-27T01:04:57.106Z,0.80
2022-09-27T01:07:40.102Z,0.73
2022-09-27T01:10:25.490Z,0.82
2022-09-27T01:13:12.602Z,0.80
2022-09-27T01:15:59.574Z,0.70
2022-09-27T01:18:46.137Z,0.93
2022-09-27T01:21:35.289Z,0.80
2022-09-27T01:24:23.130Z,0.75
2022-09-27T01:27:33.391Z,0.70
2022-09-27T01:30:19.891Z,0.85
2022-09-27T01:33:12.155Z,0.75
2022-09-27T01:36:07.433Z,0.70
2022-09-27T01:38:58.137Z,0.85
2022-09-27T01:41:46.589Z,0.90
2022-09-27T01:44:48.968Z,0.93
2022-09-27T01:47:40.676Z,0.82
2022-09-27T01:50:52.589Z,0.73
2022-09-27T01:53:37.458Z,0.70
2022-09-27T01:56:42.571Z,0.98
2022-09-27T01:59:38.575Z,0.60
2022-09-27T02:02:44.236Z,0.60
2022-09-27T02:05:48.255Z,0.80
2022-09-27T02:08:54.045Z,0.70
2022-09-27T02:11:56.058Z,0.65
2022-09-27T02:14:42.837Z,0.80
2022-09-27T02:17:31.224Z,0.70
2022-09-27T02:20:18.667Z,0.82
2022-09-27T02:23:12.207Z,0.70
2022-09-27T02:25:57.213Z,0.93
2022-09-27T02:28:41.922Z,0.70
2022-09-27T02:31:33.045Z,0.93
2022-09-27T02:34:18.554Z,0.90
2022-09-27T02:37:02.852Z,0.85
2022-09-27T02:39:45.718Z,0.88
2022-09-27T02:42:29.225Z,0.75
2022-09-27T02:45:13.886Z,0.80
2022-09-27T02:48:04.708Z,0.73
2022-09-27T02:51:22.832Z,1.23
2022-09-27T02:54:14.871Z,0.98
2022-09-27T02:57:23.283Z,0.80
2022-09-27T03:00:27.367Z,0.63
2022-09-27T03:03:19.439Z,0.90
2022-09-27T03:06:14.662Z,0.90
2022-09-27T03:08:57.900Z,1.00
2022-09-27T03:11:42.123Z,0.80
2022-09-27T03:14:25.181Z,0.90
2022-09-27T03:17:26.402Z,0.80
2022-09-27T03:20:32.111Z,0.80
2022-09-27T03:23:22.044Z,0.90
2022-09-27T03:26:10.807Z,0.85
2022-09-27T03:28:57.715Z,1.00
2022-09-27T03:31:41.969Z,0.90
2022-09-27T03:34:45.358Z,1.00
2022-09-27T03:37:29.581Z,0.90
2022-09-27T03:40:12.715Z,1.10
2022-09-27T03:42:56.067Z,1.10
2022-09-27T03:45:40.568Z,0.90
2022-09-27T03:48:28.265Z,0.90
2022-09-27T03:51:12.310Z,1.10
2022-09-27T03:53:55.320Z,1.00
2022-09-27T03:56:38.137Z,1.23
2022-09-27T03:59:21.058Z,1.10
2022-09-27T04:02:30.939Z,1.10
2022-09-27T04:05:40.166Z,0.95
2022-09-27T04:08:27.472Z,1.00
2022-09-27T04:11:10.317Z,0.98
2022-09-27T04:13:56.306Z,1.13
2022-09-27T04:16:40.238Z,1.20
2022-09-27T04:19:51.129Z,1.15
2022-09-27T04:22:34.650Z,1.20
2022-09-27T04:25:17.639Z,1.10
2022-09-27T04:28:01.532Z,1.23
2022-09-27T04:30:44.419Z,1.33
2022-09-27T04:33:27.360Z,1.23
2022-09-27T04:36:27.917Z,1.45
2022-09-27T04:39:31.385Z,1.40
2022-09-27T04:42:14.339Z,1.48
2022-09-27T04:44:57.386Z,1.50
2022-09-27T04:47:43.656Z,1.30
2022-09-27T04:50:26.783Z,1.90
2022-09-27T04:53:19.389Z,1.60
2022-09-27T04:56:06.710Z,1.52
2022-09-27T04:58:50.451Z,1.48
2022-09-27T05:01:33.860Z,1.50
2022-09-27T05:04:44.356Z,1.90
2022-09-27T05:07:27.810Z,1.73
2022-09-27T05:10:17.594Z,1.75
2022-09-27T05:13:00.378Z,1.70
2022-09-27T05:15:43.528Z,1.75
2022-09-27T05:18:44.825Z,2.30
2022-09-27T05:21:59.852Z,2.25
2022-09-27T05:24:42.797Z,2.15
2022-09-27T05:27:27.123Z,2.10
2022-09-27T05:30:11.379Z,2.25
2022-09-27T05:33:02.752Z,2.22
2022-09-27T05:36:08.293Z,2.10
2022-09-27T05:38:51.262Z,2.00
2022-09-27T05:41:35.834Z,1.80
2022-09-27T05:44:20.176Z,1.90
2022-09-27T05:47:11.416Z,2.00
2022-09-27T05:49:55.260Z,1.92
2022-09-27T05:52:38.242Z,2.30
2022-09-27T05:55:22.228Z,2.03
2022-09-27T05:58:07.742Z,2.08
2022-09-27T06:01:03.408Z,1.80
2022-09-27T06:04:24.617Z,2.00
2022-09-27T06:07:46.241Z,2.17
2022-09-27T06:10:37.863Z,2.00
2022-09-27T06:13:22.336Z,1.98
2022-09-27T06:16:11.981Z,1.83
2022-09-27T06:18:57.379Z,2.00
2022-09-27T06:21:40.186Z,1.90
2022-09-27T06:24:23.025Z,1.98
2022-09-27T06:27:06.260Z,1.83
2022-09-27T06:30:01.826Z,1.77
2022-09-27T06:33:04.626Z,2.10
2022-09-27T06:35:50.682Z,2.47
2022-09-27T06:38:35.105Z,2.10
2022-09-27T06:41:37.472Z,2.50
2022-09-27T06:44:50.084Z,2.42
2022-09-27T06:47:51.954Z,2.20
2022-09-27T06:50:49.799Z,1.92
2022-09-27T06:53:32.901Z,1.77
2022-09-27T06:56:15.927Z,1.90
2022-09-27T06:59:24.503Z,1.58
2022-09-27T07:02:27.633Z,1.27
2022-09-27T07:05:33.391Z,1.10
2022-09-27T07:08:46.564Z,1.30
2022-09-27T07:11:29.389Z,1.50
2022-09-27T07:14:12.657Z,1.30
2022-09-27T07:16:55.655Z,1.20
2022-09-27T07:19:40.075Z,0.90
2022-09-27T07:22:24.523Z,1.10
2022-09-27T07:25:16.695Z,0.90
2022-09-27T07:28:02.588Z,1.10
2022-09-27T07:30:46.078Z,0.90
2022-09-27T07:33:29.036Z,0.80
2022-09-27T07:36:12.469Z,0.85
2022-09-27T07:39:00.131Z,1.00
2022-09-27T07:41:45.910Z,0.70
2022-09-27T07:44:29.855Z,0.73
2022-09-27T07:47:34.729Z,0.73
2022-09-27T07:50:29.077Z,0.77
2022-09-27T07:53:20.363Z,0.93
2022-09-27T07:56:26.173Z,0.70
2022-09-27T07:59:10.783Z,0.85
2022-09-27T08:01:55.912Z,0.52
2022-09-27T08:04:38.911Z,0.50
2022-09-27T08:07:21.746Z,0.85
2022-09-27T08:10:08.837Z,0.63
2022-09-27T08:12:52.877Z,0.52
2022-09-27T08:15:39.084Z,0.70
2022-09-27T08:18:24.784Z,0.43
2022-09-27T08:21:10.927Z,0.50
2022-09-27T08:24:16.909Z,0.47
2022-09-27T08:27:35.321Z,0.40
2022-09-27T08:30:31.285Z,0.35
2022-09-27T08:33:15.535Z,0.50
2022-09-27T08:35:58.366Z,0.40
2022-09-27T08:38:41.281Z,0.50
2022-09-27T08:41:30.336Z,0.50
2022-09-27T08:44:17.466Z,0.40
2022-09-27T08:47:14.091Z,0.40
2022-09-27T08:49:59.909Z,0.30
2022-09-27T08:52:45.357Z,0.40
2022-09-27T08:55:37.086Z,0.30
2022-09-27T08:58:26.554Z,0.30
2022-09-27T09:01:13.834Z,0.40
2022-09-27T09:04:04.474Z,0.40
2022-09-27T09:06:54.191Z,0.43
2022-09-27T09:09:41.713Z,0.30
2022-09-27T09:12:48.709Z,0.38
2022-09-27T09:19:00.511Z,0.40
2022-09-27T09:22:07.147Z,0.30
2022-09-27T09:24:58.226Z,0.30
2022-09-27T09:27:47.238Z,0.30
2022-09-27T09:30:36.093Z,0.40
2022-09-27T09:33:23.355Z,0.30
2022-09-27T09:36:15.787Z,0.40
2022-09-27T09:39:00.747Z,0.25
2022-09-27T09:41:45.159Z,0.55
2022-09-27T09:44:30.179Z,0.35
2022-09-27T09:47:22.971Z,0.40
2022-09-27T09:50:07.115Z,0.43
2022-09-27T09:52:54.386Z,0.40
2022-09-27T09:55:38.053Z,0.50
2022-09-27T09:58:23.192Z,0.35
2022-09-27T10:01:19.793Z,0.30
2022-09-27T10:04:04.599Z,0.38
2022-09-27T10:06:47.783Z,0.40
2022-09-27T10:09:33.617Z,0.32
2022-09-27T10:12:52.174Z,0.40
2022-09-27T10:15:38.351Z,0.40
2022-09-27T10:18:22.638Z,0.43
2022-09-27T10:21:07.783Z,0.47
2022-09-27T10:24:05.029Z,0.40
2022-09-27T10:27:08.896Z,0.40
2022-09-27T10:29:57.687Z,0.40
2022-09-27T10:32:40.617Z,0.50
2022-09-27T10:35:50.944Z,0.50
2022-09-27T10:38:52.733Z,0.40
2022-09-27T10:41:43.934Z,0.50
2022-09-27T10:44:34.448Z,0.30
2022-09-27T10:47:37.353Z,0.30
2022-09-27T10:50:49.680Z,0.40
2022-09-27T10:53:45.871Z,0.60
2022-09-27T10:56:35.625Z,0.50
2022-09-27T10:59:20.295Z,0.40
2022-09-27T11:02:05.163Z,0.40
2022-09-27T11:05:06.158Z,0.40
2022-09-27T11:07:52.855Z,0.30
2022-09-27T11:10:39.638Z,0.25
2022-09-27T11:13:23.352Z,0.32
2022-09-27T11:16:23.218Z,0.35
2022-09-27T11:19:15.893Z,0.40
2022-09-27T11:22:02.775Z,0.30
2022-09-27T11:24:54.331Z,0.30
2022-09-27T11:27:47.091Z,0.40
2022-09-27T11:30:34.985Z,0.30
2022-09-27T11:33:50.117Z,0.32
2022-09-27T11:36:44.612Z,0.40
2022-09-27T11:39:30.567Z,0.30
2022-09-27T11:42:23.792Z,0.30
2022-09-27T11:45:37.049Z,0.30
2022-09-27T11:48:33.429Z,0.30
2022-09-27T11:51:26.828Z,0.30
2022-09-27T11:54:21.110Z,0.30
2022-09-27T11:57:06.535Z,0.20
2022-09-27T11:59:57.198Z,0.20
2022-09-27T12:02:46.543Z,0.30
2022-09-27T12:05:33.037Z,0.30
2022-09-27T12:08:26.754Z,0.30
2022-09-27T12:11:13.367Z,0.40
2022-09-27T12:13:58.429Z,0.40
2022-09-27T12:16:42.292Z,0.40
2022-09-27T12:19:28.372Z,0.30
2022-09-27T12:22:57.485Z,0.40
2022-09-27T12:25:42.341Z,0.40
2022-09-27T12:28:37.132Z,0.30
2022-09-27T12:31:31.015Z,0.32
2022-09-27T12:37:21.791Z,0.30
2022-09-27T12:40:08.163Z,0.30
2022-09-27T12:42:54.513Z,0.30
2022-09-27T12:45:48.141Z,0.30
2022-09-27T12:48:34.232Z,0.32
2022-09-27T12:51:18.381Z,0.30
2022-09-27T12:54:10.930Z,0.30
2022-09-27T12:56:58.146Z,0.30
2022-09-27T12:59:46.244Z,0.40
2022-09-27T13:03:11.224Z,0.40
2022-09-27T13:06:03.928Z,0.32
2022-09-27T13:08:58.514Z,0.30
2022-09-27T13:11:47.650Z,0.30
2022-09-27T13:14:33.075Z,0.35
2022-09-27T13:17:33.142Z,0.30
2022-09-27T13:20:31.215Z,0.40
2022-09-27T13:23:34.632Z,0.35
2022-09-27T13:26:24.051Z,0.40
2022-09-27T13:29:22.282Z,0.57
2022-09-27T13:32:17.627Z,0.30
2022-09-27T13:35:20.500Z,0.35
2022-09-27T13:38:21.110Z,0.40
2022-09-27T13:41:17.974Z,0.30
2022-09-27T13:44:17.008Z,0.47
2022-09-27T13:47:15.751Z,0.38
2022-09-27T13:50:03.067Z,0.60
2022-09-27T13:53:10.161Z,0.30
2022-09-27T13:55:53.885Z,0.40
2022-09-27T13:58:49.924Z,0.30
2022-09-27T14:01:53.606Z,0.45
2022-09-27T14:04:45.220Z,0.30
2022-09-27T14:07:34.412Z,0.40
2022-09-27T14:10:21.608Z,0.50
2022-09-27T14:13:05.864Z,0.35
2022-09-27T14:15:54.077Z,0.30
2022-09-27T14:18:44.646Z,0.55
2022-09-27T14:21:30.086Z,0.32
2022-09-27T14:24:33.676Z,0.30
2022-09-27T14:27:22.384Z,0.40
2022-09-27T14:30:14.230Z,0.50
2022-09-27T14:33:00.756Z,0.30
2022-09-27T14:36:27.778Z,0.30
2022-09-27T14:39:16.066Z,0.30
2022-09-27T14:42:01.228Z,0.20
2022-09-27T14:44:44.914Z,0.40
2022-09-27T14:47:28.497Z,0.30
2022-09-27T14:50:14.764Z,0.25
2022-09-27T14:53:00.898Z,0.20
2022-09-27T14:55:45.852Z,0.50
2022-09-27T14:58:46.503Z,0.30
2022-09-27T15:01:30.814Z,0.20
2022-09-27T15:04:15.588Z,0.40
2022-09-27T15:06:58.777Z,0.40
2022-09-27T15:09:42.978Z,0.30
2022-09-27T15:12:27.021Z,0.30
2022-09-27T15:15:13.586Z,0.30
2022-09-27T15:17:56.267Z,0.30
2022-09-27T15:20:53.394Z,0.30
2022-09-27T15:23:37.434Z,0.40
2022-09-27T15:26:24.072Z,0.40
2022-09-27T15:29:07.197Z,0.45
2022-09-27T15:31:59.553Z,0.28
2022-09-27T15:34:42.546Z,0.30
2022-09-27T15:37:27.498Z,0.30
2022-09-27T15:40:42.924Z,0.50
2022-09-27T15:43:30.665Z,0.43
2022-09-27T15:46:26.685Z,0.38
2022-09-27T15:49:20.808Z,0.38
2022-09-27T15:52:05.027Z,0.40
2022-09-27T15:54:47.712Z,0.63
2022-09-27T15:57:30.618Z,0.30
2022-09-27T16:00:17.138Z,0.40
2022-09-27T16:02:59.820Z,0.68
2022-09-27T16:05:43.952Z,0.47
2022-09-27T16:08:27.072Z,0.60
2022-09-27T16:11:13.427Z,0.63
2022-09-27T16:13:56.300Z,0.45
2022-09-27T16:16:41.163Z,0.40
2022-09-27T16:19:23.851Z,0.40
2022-09-27T16:22:06.561Z,0.40
2022-09-27T16:24:49.916Z,0.40
2022-09-27T16:27:32.792Z,0.60
2022-09-27T16:30:15.867Z,0.50
2022-09-27T16:33:00.350Z,0.47
2022-09-27T16:35:43.131Z,0.40
2022-09-27T16:38:27.425Z,0.30
2022-09-27T16:41:10.145Z,0.40
2022-09-27T16:43:53.012Z,0.30
2022-09-27T16:46:35.712Z,0.43
2022-09-27T16:49:37.284Z,0.30
2022-09-27T16:52:20.018Z,0.40
2022-09-27T16:55:02.752Z,0.43
2022-09-27T16:57:46.189Z,0.30
2022-09-27T17:00:29.319Z,0.40
2022-09-27T17:03:12.158Z,0.38
2022-09-27T17:05:56.227Z,0.38
2022-09-27T17:08:38.905Z,0.32
2022-09-27T17:11:22.026Z,0.30
2022-09-27T17:14:04.744Z,0.20
2022-09-27T17:16:48.218Z,0.22
2022-09-27T17:19:32.417Z,0.30
2022-09-27T17:22:17.050Z,0.30
2022-09-27T17:24:59.615Z,0.50
2022-09-27T17:27:42.333Z,0.50
2022-09-27T17:30:25.039Z,0.50
2022-09-27T17:33:07.944Z,0.70
2022-09-27T17:36:00.160Z,0.43
2022-09-27T17:38:44.874Z,0.47
2022-09-27T17:41:28.571Z,0.55
2022-09-27T17:44:13.035Z,0.57
2022-09-27T17:47:09.628Z,0.60
2022-09-27T17:50:09.921Z,0.43
2022-09-27T17:52:53.257Z,0.60
2022-09-27T17:55:37.297Z,0.60
2022-09-27T17:58:20.839Z,0.50
2022-09-27T18:01:06.726Z,0.60
2022-09-27T18:03:49.438Z,0.57
2022-09-27T18:06:32.529Z,0.50
2022-09-27T18:09:16.526Z,0.85
2022-09-27T18:12:00.907Z,0.70
2022-09-27T18:14:44.142Z,0.52
2022-09-27T18:17:27.969Z,0.60
2022-09-27T18:20:11.078Z,0.50
2022-09-27T18:22:54.165Z,0.70
2022-09-27T18:25:40.432Z,0.60
2022-09-27T18:28:27.861Z,0.60
2022-09-27T18:31:11.734Z,0.60
2022-09-27T18:33:54.553Z,0.75
2022-09-27T18:36:40.636Z,0.60
2022-09-27T18:39:24.043Z,0.60
2022-09-27T18:42:06.969Z,0.50
2022-09-27T18:44:51.375Z,0.70
2022-09-27T18:47:34.264Z,0.90
2022-09-27T18:50:17.327Z,0.55
2022-09-27T18:53:00.121Z,0.50
2022-09-27T18:55:42.756Z,0.50
2022-09-27T18:58:25.795Z,0.73
2022-09-27T19:01:13.781Z,0.60
2022-09-27T19:03:56.400Z,0.63
2022-09-27T19:06:39.513Z,0.60
2022-09-27T19:09:22.605Z,0.60
2022-09-27T19:12:05.766Z,0.55
2022-09-27T19:14:48.859Z,0.43
2022-09-27T19:17:33.285Z,0.70
2022-09-27T19:20:16.404Z,0.70
2022-09-27T19:22:59.275Z,0.80
2022-09-27T19:25:42.218Z,0.50
2022-09-27T19:28:25.002Z,0.60
2022-09-27T19:31:13.155Z,0.60
2022-09-27T19:34:00.412Z,0.70
2022-09-27T19:36:43.393Z,0.90
2022-09-27T19:39:26.205Z,0.80
2022-09-27T19:42:09.230Z,0.95
2022-09-27T19:44:52.060Z,0.80
2022-09-27T19:47:34.867Z,0.90
2022-09-27T19:50:19.080Z,1.08
2022-09-27T19:53:01.820Z,0.90
2022-09-27T19:55:44.538Z,0.85
2022-09-27T19:58:27.865Z,1.20
2022-09-27T20:01:11.532Z,0.90
2022-09-27T20:03:55.270Z,1.30
2022-09-27T20:06:39.350Z,0.88
2022-09-27T20:09:22.066Z,1.13
2022-09-27T20:12:05.319Z,1.20
2022-09-27T20:14:47.969Z,1.15
2022-09-27T20:17:32.419Z,0.90
2022-09-27T20:20:15.122Z,1.20
2022-09-27T20:22:59.144Z,1.27
2022-09-27T20:25:43.175Z,1.40
2022-09-27T20:28:26.619Z,1.40
2022-09-27T20:31:09.495Z,1.30
2022-09-27T20:33:52.605Z,1.40
2022-09-27T20:36:36.511Z,1.20
2022-09-27T20:39:22.593Z,1.40
2022-09-27T20:42:05.455Z,1.38
2022-09-27T20:44:53.317Z,1.20
2022-09-27T20:47:39.318Z,1.48
2022-09-27T20:50:22.367Z,1.42
2022-09-27T20:53:05.211Z,1.30
2022-09-27T20:55:49.260Z,1.40
2022-09-27T20:58:32.442Z,1.30
2022-09-27T21:01:15.594Z,1.48
2022-09-27T21:03:58.923Z,1.52
2022-09-27T21:06:42.122Z,1.30
2022-09-27T21:09:24.685Z,1.85
2022-09-27T21:12:08.664Z,1.65
2022-09-27T21:14:51.264Z,1.70
2022-09-27T21:17:33.891Z,1.48
2022-09-27T21:20:16.585Z,1.80
2022-09-27T21:22:59.275Z,1.65
2022-09-27T21:25:41.926Z,1.70
2022-09-27T21:28:25.869Z,1.80
2022-09-27T21:31:09.383Z,1.67
2022-09-27T21:33:53.965Z,1.75
2022-09-27T21:36:37.933Z,1.40
2022-09-27T21:39:20.601Z,2.10
2022-09-27T21:42:03.432Z,1.73
2022-09-27T21:44:47.489Z,2.05
2022-09-27T21:47:30.135Z,1.55
2022-09-27T21:50:12.808Z,1.70
2022-09-27T21:52:58.111Z,2.05
2022-09-27T21:55:40.981Z,2.10
2022-09-27T21:58:23.729Z,2.28
2022-09-27T22:01:12.316Z,1.88
2022-09-27T22:03:55.650Z,2.35
2022-09-27T22:06:39.198Z,2.15
2022-09-27T22:09:22.250Z,2.20
2022-09-27T22:12:05.889Z,2.20
2022-09-27T22:14:48.911Z,2.20
2022-09-27T22:17:32.958Z,2.10
2022-09-27T22:20:15.769Z,2.10
2022-09-27T22:22:58.481Z,2.15
2022-09-27T22:25:41.199Z,2.17
2022-09-27T22:28:23.911Z,1.75
2022-09-27T22:31:09.938Z,2.35
2022-09-27T22:33:54.666Z,2.03
2022-09-27T22:36:37.799Z,2.67
2022-09-27T22:39:20.402Z,2.13
2022-09-27T22:42:03.041Z,2.22
2022-09-27T22:44:45.657Z,2.40
2022-09-27T22:47:28.999Z,2.63
2022-09-27T22:50:13.020Z,2.30
2022-09-27T22:52:55.657Z,2.45
2022-09-27T22:55:38.296Z,2.40
2022-09-27T22:58:21.214Z,2.35
2022-09-27T23:01:10.493Z,2.58
2022-09-27T23:03:54.097Z,2.65
2022-09-27T23:06:39.979Z,2.28
2022-09-27T23:09:22.587Z,2.45
2022-09-27T23:12:05.362Z,2.50
2022-09-27T23:14:47.983Z,2.47
2022-09-27T23:17:30.566Z,2.67
2022-09-27T23:20:14.306Z,2.80
2022-09-27T23:22:59.176Z,2.60
2022-09-27T23:25:41.754Z,2.50
2022-09-27T23:28:24.411Z,2.30
2022-09-27T23:31:10.847Z,2.28
2022-09-27T23:33:54.578Z,2.20
2022-09-27T23:36:37.210Z,2.78
2022-09-27T23:39:21.234Z,2.40
2022-09-27T23:42:04.199Z,2.10
2022-09-27T23:44:46.796Z,2.30
2022-09-27T23:47:29.551Z,2.30
2022-09-27T23:50:12.179Z,2.42
2022-09-27T23:52:54.879Z,2.20
2022-09-27T23:55:38.837Z,2.33
2022-09-27T23:58:22.408Z,2.78
